Time;durP1;ratioP1;P1;durP2;ratioP2;P2;SDS_P1;SDS_P2;PMS_P1;PMS_P2;Temp;Humidity;BMP_temperature;BMP_pressure;BME280_temperature;BME280_humidity;BME280_pressure;Samples;Min_cycle;Max_cycle;Signal;HPM_P1;HPM_P2
2024/01/18 00:00:48;;;;;;;3.30;0.30;;;31.50;93.20;;;;;;4941843;28;20154;-72
2024/01/18 00:03:15;;;;;;;0.75;0.47;;;31.90;91.50;;;;;;4945460;28;20047;-72
2024/01/18 00:05:43;;;;;;;1.15;0.25;;;32.10;90.40;;;;;;4939523;28;20046;-72
2024/01/18 00:08:10;;;;;;;2.28;0.38;;;31.80;90.70;;;;;;4941493;29;20452;-72
2024/01/18 00:10:37;;;;;;;0.80;0.40;;;31.90;90.60;;;;;;4938698;29;20470;-73
2024/01/18 00:13:05;;;;;;;3.30;0.60;;;32.40;90.90;;;;;;4944149;28;20027;-72
2024/01/18 00:15:32;;;;;;;0.43;0.10;;;33.00;89.90;;;;;;4944026;28;20026;-72
2024/01/18 00:18:00;;;;;;;2.17;0.43;;;33.40;87.10;;;;;;4942608;28;20488;-72
2024/01/18 00:20:27;;;;;;;3.38;0.35;;;33.50;89.20;;;;;;4935115;29;20031;-73
2024/01/18 00:22:55;;;;;;;1.40;0.52;;;33.50;88.30;;;;;;4936413;29;20043;-73
2024/01/18 00:25:22;;;;;;;4.35;0.63;;;33.60;88.20;;;;;;4936841;29;20034;-72
2024/01/18 00:27:49;;;;;;;2.47;0.30;;;33.70;89.50;;;;;;4934122;29;20110;-73
2024/01/18 00:30:18;;;;;;;2.45;0.40;;;33.90;91.20;;;;;;4934849;29;20019;-72
2024/01/18 00:32:49;;;;;;;3.50;0.50;;;34.10;89.60;;;;;;4938218;28;20034;-73
2024/01/18 00:35:16;;;;;;;1.00;0.30;;;34.30;91.00;;;;;;4937788;29;20038;-71
2024/01/18 00:37:44;;;;;;;3.05;0.38;;;34.10;89.70;;;;;;4939543;29;20027;-72
2024/01/18 00:40:14;;;;;;;3.30;0.60;;;33.60;88.00;;;;;;4937393;28;20070;-72
2024/01/18 00:42:41;;;;;;;5.22;0.93;;;33.20;90.00;;;;;;4935163;29;20046;-72
2024/01/18 00:45:10;;;;;;;1.90;0.30;;;32.90;91.00;;;;;;4940673;28;20472;-72
2024/01/18 00:47:37;;;;;;;1.13;0.30;;;32.80;89.60;;;;;;4938686;29;20035;-72
2024/01/18 00:50:06;;;;;;;1.00;0.40;;;32.90;91.50;;;;;;4935915;28;20027;-72
2024/01/18 00:52:33;;;;;;;0.70;0.20;;;32.90;91.30;;;;;;4940140;29;20056;-72
2024/01/18 00:55:05;;;;;;;0.52;0.20;;;33.50;91.30;;;;;;4942374;28;20118;-72
2024/01/18 00:57:33;;;;;;;1.77;0.30;;;33.50;90.40;;;;;;4942139;29;20063;-73
2024/01/18 01:00:01;;;;;;;0.90;0.38;;;34.10;91.20;;;;;;4945689;28;20030;-72
2024/01/18 01:02:29;;;;;;;0.63;0.20;;;34.30;89.60;;;;;;4949098;28;20388;-72
2024/01/18 01:04:57;;;;;;;0.93;0.30;;;34.50;89.60;;;;;;4938722;29;20063;-73
2024/01/18 01:07:27;;;;;;;2.97;0.20;;;34.80;90.30;;;;;;4945522;29;20035;-73
2024/01/18 01:09:55;;;;;;;2.05;0.28;;;34.80;88.40;;;;;;4939849;29;20035;-74
2024/01/18 01:12:23;;;;;;;2.50;0.32;;;35.00;87.60;;;;;;4955506;28;20035;-73
2024/01/18 01:14:51;;;;;;;1.38;0.30;;;35.10;87.30;;;;;;4945268;28;20031;-72
2024/01/18 01:17:19;;;;;;;1.92;0.50;;;35.50;87.80;;;;;;4949816;28;20448;-73
2024/01/18 01:19:47;;;;;;;1.65;0.30;;;35.40;84.50;;;;;;4942430;28;20034;-72
2024/01/18 01:22:15;;;;;;;0.50;0.38;;;34.90;83.80;;;;;;4940104;28;20038;-72
2024/01/18 01:24:43;;;;;;;0.38;0.20;;;35.10;84.50;;;;;;4943018;28;20035;-71
2024/01/18 01:27:11;;;;;;;0.60;0.20;;;35.20;86.40;;;;;;4946055;28;20513;-72
2024/01/18 01:29:38;;;;;;;0.90;0.30;;;35.50;81.30;;;;;;4946399;28;20039;-71
2024/01/18 01:32:06;;;;;;;2.00;0.20;;;35.00;79.20;;;;;;4947881;28;20039;-72
2024/01/18 01:34:38;;;;;;;4.22;0.30;;;35.10;78.30;;;;;;4946375;28;20027;-72
2024/01/18 01:37:06;;;;;;;0.55;0.20;;;35.40;81.90;;;;;;4949417;28;20090;-72
2024/01/18 01:39:34;;;;;;;2.13;0.10;;;35.00;75.50;;;;;;4945671;29;20106;-72
2024/01/18 01:42:03;;;;;;;1.02;0.15;;;34.70;76.40;;;;;;4940693;28;20036;-73
2024/01/18 01:44:31;;;;;;;0.82;0.20;;;35.10;76.80;;;;;;4955957;28;20031;-73
2024/01/18 01:46:59;;;;;;;4.78;0.20;;;35.60;70.80;;;;;;4946863;29;20377;-73
2024/01/18 01:49:27;;;;;;;0.10;0.10;;;35.20;70.20;;;;;;4938948;28;20450;-73
2024/01/18 01:51:55;;;;;;;1.67;0.17;;;34.40;71.70;;;;;;4944298;28;20142;-74
2024/01/18 01:54:29;;;;;;;1.67;0.63;;;34.50;77.10;;;;;;4936084;29;20028;-72
2024/01/18 01:57:03;;;;;;;1.55;0.10;;;35.30;76.50;;;;;;4944237;29;20035;-72
2024/01/18 01:59:32;;;;;;;0.20;0.20;;;35.70;70.40;;;;;;4944560;28;20405;-72
2024/01/18 02:02:04;;;;;;;2.10;0.10;;;35.90;74.00;;;;;;4944287;29;20355;-72
2024/01/18 02:04:32;;;;;;;0.73;0.03;;;36.20;70.00;;;;;;4941070;29;20065;-72
2024/01/18 02:07:01;;;;;;;0.05;0.05;;;36.50;71.40;;;;;;4942578;28;20035;-71
2024/01/18 02:09:29;;;;;;;1.80;0.10;;;36.80;69.80;;;;;;4943007;28;20028;-71
2024/01/18 02:11:58;;;;;;;4.68;0.20;;;36.60;62.70;;;;;;4945940;28;20404;-71
2024/01/18 02:14:27;;;;;;;1.25;0.10;;;36.30;63.80;;;;;;4937089;28;20028;-71
2024/01/18 02:16:55;;;;;;;0.22;0.10;;;36.40;62.70;;;;;;4938090;29;20066;-71
2024/01/18 02:19:24;;;;;;;0.20;0.10;;;36.70;64.20;;;;;;4944136;28;20066;-72
2024/01/18 02:21:52;;;;;;;0.60;0.20;;;36.80;60.50;;;;;;4941554;29;20019;-71
2024/01/18 02:24:33;;;;;;;0.20;0.13;;;36.50;60.60;;;;;;4935254;28;20039;-72
2024/01/18 02:27:02;;;;;;;1.02;0.60;;;36.00;62.30;;;;;;4941511;29;20028;-73
2024/01/18 02:29:30;;;;;;;0.22;0.10;;;35.90;60.40;;;;;;4942346;28;20097;-73
2024/01/18 02:31:59;;;;;;;0.20;0.00;;;36.20;63.90;;;;;;4936362;28;20040;-73
2024/01/18 02:34:27;;;;;;;0.63;0.30;;;36.50;60.90;;;;;;4942146;29;20056;-72
2024/01/18 02:36:58;;;;;;;0.32;0.10;;;36.70;60.80;;;;;;4939122;29;20031;-72
2024/01/18 02:39:26;;;;;;;0.10;0.00;;;36.60;61.50;;;;;;4936471;29;20036;-72
2024/01/18 02:41:56;;;;;;;0.52;0.08;;;36.80;59.40;;;;;;4941811;28;20032;-73
2024/01/18 02:44:26;;;;;;;0.32;0.20;;;36.60;57.40;;;;;;4936672;28;20457;-72
2024/01/18 02:46:58;;;;;;;1.40;0.40;;;35.60;59.40;;;;;;4942872;28;20027;-71
2024/01/18 02:49:26;;;;;;;0.10;0.10;;;35.70;62.10;;;;;;4950170;29;21751;-73
2024/01/18 02:51:56;;;;;;;0.13;0.10;;;36.20;62.80;;;;;;4829297;28;5401763;-74
2024/01/18 02:54:25;;;;;;;3.55;0.28;;;36.80;62.50;;;;;;4938389;28;20416;-73
2024/01/18 02:56:53;;;;;;;0.93;0.20;;;37.30;61.70;;;;;;4935983;28;20039;-72
2024/01/18 02:59:21;;;;;;;0.43;0.05;;;37.40;56.10;;;;;;4943857;29;20365;-72
2024/01/18 03:01:50;;;;;;;2.05;0.30;;;36.90;56.90;;;;;;4941790;29;20038;-72
2024/01/18 03:04:17;;;;;;;0.30;0.20;;;36.00;54.80;;;;;;4947316;28;20023;-72
2024/01/18 03:06:45;;;;;;;4.03;0.30;;;35.70;56.40;;;;;;4951994;28;20055;-71
2024/01/18 03:09:14;;;;;;;0.80;0.00;;;35.80;59.40;;;;;;4939504;28;20027;-71
2024/01/18 03:11:43;;;;;;;0.40;0.20;;;36.10;56.30;;;;;;4944429;28;20066;-73
2024/01/18 03:14:14;;;;;;;0.60;0.20;;;36.40;56.30;;;;;;4947621;28;20027;-72
2024/01/18 03:16:43;;;;;;;0.80;0.20;;;36.70;54.10;;;;;;4946765;29;20066;-71
2024/01/18 03:19:14;;;;;;;1.35;0.17;;;36.40;51.40;;;;;;4940292;29;20047;-70
2024/01/18 03:21:42;;;;;;;1.85;0.30;;;36.30;52.70;;;;;;4950407;28;20043;-71
2024/01/18 03:24:10;;;;;;;1.13;0.20;;;36.20;53.30;;;;;;4940009;29;20047;-71
2024/01/18 03:26:38;;;;;;;0.32;0.10;;;36.30;53.60;;;;;;4935824;29;20410;-72
2024/01/18 03:29:05;;;;;;;1.33;0.25;;;36.20;51.70;;;;;;4938610;29;20032;-70
2024/01/18 03:31:33;;;;;;;2.25;0.30;;;35.90;53.30;;;;;;4934576;29;20027;-70
2024/01/18 03:34:00;;;;;;;1.90;0.20;;;35.90;53.30;;;;;;4937084;29;20031;-70
2024/01/18 03:36:28;;;;;;;2.70;0.20;;;35.90;52.00;;;;;;4936555;29;20571;-69
2024/01/18 03:38:55;;;;;;;4.25;0.30;;;35.40;51.50;;;;;;4945901;28;20023;-69
2024/01/18 03:41:23;;;;;;;1.73;0.30;;;35.20;49.80;;;;;;4940695;29;20063;-70
2024/01/18 03:43:50;;;;;;;0.40;0.17;;;35.00;50.20;;;;;;4940235;28;20405;-70
2024/01/18 03:46:17;;;;;;;0.95;0.30;;;35.40;50.30;;;;;;4935934;29;20032;-70
2024/01/18 03:48:45;;;;;;;0.65;0.32;;;35.60;50.40;;;;;;4939605;29;20031;-70
2024/01/18 03:51:12;;;;;;;1.33;0.30;;;35.60;51.80;;;;;;4943576;29;20066;-71
2024/01/18 03:53:43;;;;;;;1.92;0.30;;;35.70;52.20;;;;;;4938933;29;20457;-70
2024/01/18 03:56:14;;;;;;;0.82;0.30;;;35.80;51.40;;;;;;4935664;28;20458;-70
2024/01/18 03:58:43;;;;;;;2.40;0.40;;;35.80;49.40;;;;;;4954369;28;20027;-69
2024/01/18 04:01:10;;;;;;;2.90;0.40;;;35.80;49.60;;;;;;4936803;29;20027;-70
2024/01/18 04:03:38;;;;;;;1.58;0.40;;;35.90;50.30;;;;;;4941786;28;20091;-71
2024/01/18 04:06:05;;;;;;;1.85;0.20;;;36.00;50.00;;;;;;4941705;28;20031;-71
2024/01/18 04:08:32;;;;;;;0.70;0.30;;;36.20;48.90;;;;;;4936712;29;20027;-70
2024/01/18 04:11:02;;;;;;;2.63;0.40;;;36.00;48.30;;;;;;4938505;29;20032;-70
2024/01/18 04:13:29;;;;;;;4.28;0.40;;;36.20;50.40;;;;;;4946850;29;20066;-71
2024/01/18 04:15:57;;;;;;;0.47;0.30;;;36.40;49.20;;;;;;4942702;29;20028;-70
2024/01/18 04:18:24;;;;;;;0.75;0.15;;;36.40;47.50;;;;;;4936793;29;20031;-70
2024/01/18 04:20:52;;;;;;;2.05;0.40;;;36.10;47.80;;;;;;4939012;28;20074;-70
2024/01/18 04:23:21;;;;;;;0.60;0.20;;;36.00;49.40;;;;;;4937643;28;20039;-70
2024/01/18 04:25:52;;;;;;;0.90;0.28;;;36.30;49.20;;;;;;4934976;29;20027;-69
2024/01/18 04:28:20;;;;;;;1.83;0.30;;;36.00;48.80;;;;;;4935218;29;20027;-69
2024/01/18 04:30:48;;;;;;;1.40;0.20;;;35.80;48.30;;;;;;4935068;29;20115;-70
2024/01/18 04:33:18;;;;;;;2.92;0.30;;;35.70;46.90;;;;;;4933683;29;20032;-71
2024/01/18 04:35:46;;;;;;;1.65;0.20;;;35.90;46.70;;;;;;4943275;29;20031;-69
2024/01/18 04:38:13;;;;;;;2.22;0.30;;;36.00;48.40;;;;;;4943184;28;20114;-69
2024/01/18 04:40:40;;;;;;;0.57;0.30;;;35.80;48.30;;;;;;4941053;28;20034;-69
2024/01/18 04:43:08;;;;;;;0.90;0.20;;;35.90;47.10;;;;;;4942439;29;20039;-70
2024/01/18 04:45:35;;;;;;;4.05;0.40;;;35.60;46.00;;;;;;4945152;29;20476;-69
2024/01/18 04:48:03;;;;;;;0.65;0.20;;;35.10;46.50;;;;;;4946834;28;20023;-70
2024/01/18 04:50:30;;;;;;;1.98;0.20;;;34.90;44.10;;;;;;4944384;29;20066;-68
2024/01/18 04:52:58;;;;;;;0.20;0.15;;;35.10;43.70;;;;;;4941261;29;20074;-69
2024/01/18 04:55:25;;;;;;;0.70;0.20;;;35.10;44.60;;;;;;4933118;29;20032;-71
2024/01/18 04:57:52;;;;;;;0.70;0.22;;;34.80;44.50;;;;;;4938689;29;20038;-70
2024/01/18 05:00:20;;;;;;;0.75;0.20;;;34.80;44.10;;;;;;4939727;28;20024;-69
2024/01/18 05:02:47;;;;;;;1.40;0.32;;;34.60;44.80;;;;;;4932117;29;20485;-69
2024/01/18 05:05:15;;;;;;;0.73;0.17;;;34.70;48.00;;;;;;4937498;29;20464;-70
2024/01/18 05:07:42;;;;;;;1.92;0.32;;;34.80;48.60;;;;;;4937522;28;20191;-70
2024/01/18 05:10:10;;;;;;;3.92;0.50;;;34.90;44.80;;;;;;4937590;29;20087;-68
2024/01/18 05:12:38;;;;;;;0.40;0.20;;;35.00;42.10;;;;;;4942429;29;20042;-70
2024/01/18 05:15:07;;;;;;;0.85;0.30;;;35.00;46.20;;;;;;4941836;28;20105;-69
2024/01/18 05:17:35;;;;;;;0.45;0.30;;;35.00;45.70;;;;;;4935647;28;20147;-68
2024/01/18 05:20:09;;;;;;;0.55;0.30;;;34.80;42.70;;;;;;4948653;28;20501;-70
2024/01/18 05:22:36;;;;;;;0.30;0.10;;;34.80;42.90;;;;;;4935134;29;20429;-69
2024/01/18 05:25:05;;;;;;;1.85;0.63;;;34.80;42.60;;;;;;4951531;28;20031;-69
2024/01/18 05:27:32;;;;;;;1.05;0.30;;;34.60;43.90;;;;;;4933635;29;20027;-68
2024/01/18 05:30:00;;;;;;;1.00;0.25;;;34.80;43.40;;;;;;4933898;29;20536;-71
2024/01/18 05:32:27;;;;;;;1.58;0.22;;;34.80;44.40;;;;;;4940860;29;20038;-69
2024/01/18 05:34:55;;;;;;;3.25;0.30;;;34.60;43.40;;;;;;4955307;28;20035;-68
2024/01/18 05:37:23;;;;;;;1.25;0.30;;;34.60;42.70;;;;;;4944147;29;20066;-69
2024/01/18 05:39:51;;;;;;;1.15;0.30;;;34.50;42.70;;;;;;4944255;28;20060;-68
2024/01/18 05:42:26;;;;;;;2.67;0.30;;;34.30;42.40;;;;;;4934604;28;20454;-70
2024/01/18 05:44:54;;;;;;;3.08;0.40;;;34.10;44.70;;;;;;4938029;29;20035;-69
2024/01/18 05:47:21;;;;;;;1.52;0.40;;;34.20;44.40;;;;;;4941691;29;20524;-70
2024/01/18 05:49:50;;;;;;;2.72;0.30;;;34.20;43.20;;;;;;4942962;29;20115;-70
2024/01/18 05:52:17;;;;;;;1.42;0.30;;;34.20;43.90;;;;;;4937040;29;20165;-68
2024/01/18 05:54:45;;;;;;;2.17;0.30;;;34.00;44.10;;;;;;4942068;28;20453;-70
2024/01/18 05:57:12;;;;;;;1.65;0.30;;;34.00;43.60;;;;;;4947824;28;20113;-70
2024/01/18 05:59:40;;;;;;;1.77;0.22;;;33.90;42.60;;;;;;4938738;28;20036;-70
2024/01/18 06:02:09;;;;;;;2.38;0.43;;;34.00;44.30;;;;;;4937331;29;20114;-69
2024/01/18 06:04:36;;;;;;;3.03;0.50;;;34.10;42.60;;;;;;4942443;29;20054;-69
2024/01/18 06:07:04;;;;;;;1.70;0.20;;;34.00;42.90;;;;;;4944857;28;20024;-70
2024/01/18 06:09:31;;;;;;;3.28;0.40;;;34.00;43.40;;;;;;4947055;29;20592;-70
2024/01/18 06:11:59;;;;;;;1.95;0.35;;;34.20;43.40;;;;;;4937349;29;20347;-69
2024/01/18 06:14:26;;;;;;;3.35;0.70;;;33.80;44.20;;;;;;4945705;29;20425;-71
2024/01/18 06:16:53;;;;;;;4.55;0.60;;;33.80;43.90;;;;;;4946090;29;20159;-69
2024/01/18 06:19:21;;;;;;;5.45;0.80;;;33.50;45.30;;;;;;4940747;29;20028;-69
2024/01/18 06:21:49;;;;;;;2.53;0.40;;;33.50;44.30;;;;;;4952061;28;20034;-69
2024/01/18 06:24:17;;;;;;;3.72;1.80;;;33.20;43.90;;;;;;4945595;29;20130;-70
2024/01/18 06:26:44;;;;;;;1.25;0.30;;;33.10;44.60;;;;;;4939270;28;20020;-67
2024/01/18 06:29:12;;;;;;;2.22;0.30;;;33.10;42.70;;;;;;4944251;29;20059;-69
2024/01/18 06:31:39;;;;;;;0.82;0.38;;;32.90;43.20;;;;;;4952238;28;20031;-68
2024/01/18 06:34:08;;;;;;;1.08;0.30;;;32.90;43.80;;;;;;4948769;29;20073;-68
2024/01/18 06:36:37;;;;;;;1.38;0.43;;;33.10;44.10;;;;;;4944970;29;20040;-68
2024/01/18 06:39:05;;;;;;;2.00;0.55;;;33.00;43.40;;;;;;4942713;28;20369;-69
2024/01/18 06:41:32;;;;;;;2.40;0.88;;;33.20;44.50;;;;;;4940419;29;20055;-68
2024/01/18 06:44:00;;;;;;;0.93;0.20;;;33.00;43.50;;;;;;4939840;28;20428;-68
2024/01/18 06:46:28;;;;;;;2.47;0.47;;;33.00;44.20;;;;;;4938607;29;20054;-69
2024/01/18 06:48:57;;;;;;;5.43;0.82;;;32.80;43.40;;;;;;4939687;29;20046;-68
2024/01/18 06:51:25;;;;;;;1.30;0.32;;;32.90;43.60;;;;;;4938496;29;20035;-68
2024/01/18 06:53:52;;;;;;;5.80;1.48;;;32.70;43.40;;;;;;4939685;29;20054;-69
2024/01/18 06:56:19;;;;;;;4.03;0.70;;;32.60;43.80;;;;;;4942898;28;20098;-69
2024/01/18 06:58:47;;;;;;;2.17;0.90;;;32.60;44.50;;;;;;4946148;29;20473;-69
2024/01/18 07:01:14;;;;;;;2.97;1.30;;;32.60;44.20;;;;;;4936327;28;20035;-70
2024/01/18 07:03:42;;;;;;;2.55;0.70;;;32.60;44.60;;;;;;4943345;29;20035;-69
2024/01/18 07:06:10;;;;;;;1.33;0.60;;;32.50;43.10;;;;;;4949289;28;20023;-68
2024/01/18 07:08:37;;;;;;;1.85;0.70;;;32.40;44.40;;;;;;4943984;28;20527;-69
2024/01/18 07:11:05;;;;;;;4.30;0.70;;;32.60;43.50;;;;;;4937633;28;20036;-69
2024/01/18 07:13:32;;;;;;;4.05;0.60;;;32.60;44.80;;;;;;4937571;28;22786;-69
2024/01/18 07:16:00;;;;;;;1.35;0.40;;;32.60;42.60;;;;;;4934199;29;20024;-68
2024/01/18 07:18:28;;;;;;;1.95;0.43;;;32.60;44.00;;;;;;4935081;29;20110;-69
2024/01/18 07:20:55;;;;;;;2.10;0.30;;;32.50;44.10;;;;;;4954051;28;20425;-69
2024/01/18 07:23:23;;;;;;;2.72;0.22;;;32.50;44.60;;;;;;4941217;28;20129;-69
2024/01/18 07:25:50;;;;;;;6.85;0.82;;;32.40;44.80;;;;;;4945061;28;20118;-69
2024/01/18 07:28:19;;;;;;;4.63;0.43;;;32.40;44.40;;;;;;4946915;28;20028;-68
2024/01/18 07:30:47;;;;;;;1.25;0.30;;;32.40;44.20;;;;;;4940905;28;20035;-68
2024/01/18 07:33:15;;;;;;;1.45;0.43;;;32.30;43.80;;;;;;4946843;28;20027;-68
2024/01/18 07:35:43;;;;;;;1.77;0.40;;;32.20;45.30;;;;;;4937591;28;20047;-69
2024/01/18 07:38:10;;;;;;;3.33;0.50;;;32.20;44.40;;;;;;4945071;28;20110;-68
2024/01/18 07:40:38;;;;;;;2.10;0.55;;;32.10;45.40;;;;;;4939257;29;20083;-68
2024/01/18 07:43:06;;;;;;;2.72;0.47;;;31.90;45.10;;;;;;4942857;29;20046;-69
2024/01/18 07:45:33;;;;;;;4.60;1.00;;;31.70;45.70;;;;;;4947999;28;20122;-67
2024/01/18 07:48:00;;;;;;;13.35;4.60;;;31.70;45.40;;;;;;4943988;29;20034;-68
2024/01/18 07:50:28;;;;;;;5.38;0.90;;;31.80;45.30;;;;;;4938151;29;20028;-69
2024/01/18 07:52:55;;;;;;;5.70;1.27;;;31.90;45.10;;;;;;4943114;29;20437;-68
2024/01/18 07:55:24;;;;;;;3.78;0.70;;;31.80;45.50;;;;;;4937666;28;20087;-69
2024/01/18 07:57:52;;;;;;;1.67;0.50;;;31.70;45.50;;;;;;4935795;29;20032;-67
2024/01/18 08:00:19;;;;;;;1.27;0.40;;;31.60;45.80;;;;;;4945980;28;20390;-68
2024/01/18 08:02:47;;;;;;;20.35;6.18;;;31.50;45.00;;;;;;4935477;29;20047;-69
2024/01/18 08:05:14;;;;;;;7.57;1.40;;;31.60;45.20;;;;;;4947571;29;20027;-68
2024/01/18 08:07:42;;;;;;;1.38;0.40;;;31.40;44.30;;;;;;4942082;29;20024;-69
2024/01/18 08:10:09;;;;;;;2.63;0.40;;;31.40;43.70;;;;;;4947142;28;20081;-70
2024/01/18 08:12:37;;;;;;;3.00;0.38;;;31.30;43.70;;;;;;4945819;29;20059;-69
2024/01/18 08:15:05;;;;;;;2.90;0.40;;;31.20;44.60;;;;;;4942236;28;20019;-71
2024/01/18 08:17:33;;;;;;;0.77;0.17;;;31.10;41.90;;;;;;4941717;28;20095;-70
2024/01/18 08:20:00;;;;;;;0.45;0.20;;;31.00;40.40;;;;;;4933913;29;20055;-69
2024/01/18 08:22:28;;;;;;;1.83;0.50;;;30.80;41.10;;;;;;4942313;29;20039;-70
2024/01/18 08:24:56;;;;;;;1.63;0.28;;;30.70;43.30;;;;;;4952505;28;20032;-69
2024/01/18 08:27:24;;;;;;;5.28;0.60;;;30.50;41.60;;;;;;4948190;28;20424;-69
2024/01/18 08:29:52;;;;;;;2.58;0.30;;;30.40;42.10;;;;;;4936220;28;20373;-69
2024/01/18 08:32:19;;;;;;;2.17;0.52;;;30.20;42.50;;;;;;4940794;28;20086;-70
2024/01/18 08:34:46;;;;;;;4.55;0.93;;;30.00;42.80;;;;;;4942630;29;20058;-70
2024/01/18 08:37:14;;;;;;;0.80;0.22;;;29.90;42.30;;;;;;4935477;28;20031;-68
2024/01/18 08:39:41;;;;;;;9.60;1.50;;;29.70;42.00;;;;;;4935410;28;20051;-72
2024/01/18 08:42:09;;;;;;;1.63;0.40;;;29.60;42.20;;;;;;4941975;29;20058;-69
2024/01/18 08:44:36;;;;;;;1.77;0.55;;;29.40;43.20;;;;;;4934646;29;20443;-69
2024/01/18 08:47:04;;;;;;;123.32;22.40;;;29.40;41.10;;;;;;4938084;29;20024;-69
2024/01/18 08:49:31;;;;;;;17.80;2.10;;;29.30;41.70;;;;;;4935016;29;20058;-69
2024/01/18 08:51:59;;;;;;;160.40;23.08;;;29.10;40.70;;;;;;4938490;29;20020;-69
2024/01/18 08:54:26;;;;;;;5.47;1.10;;;29.00;41.40;;;;;;4946071;28;20027;-69
2024/01/18 08:56:53;;;;;;;42.50;12.57;;;28.90;39.80;;;;;;4940385;28;20044;-69
2024/01/18 08:59:21;;;;;;;7.00;1.27;;;28.70;40.20;;;;;;4939852;29;20644;-70
2024/01/18 09:01:48;;;;;;;0.95;0.30;;;28.70;40.60;;;;;;4939690;29;20102;-69
2024/01/18 09:04:16;;;;;;;13.52;5.32;;;28.60;40.50;;;;;;4945990;29;20088;-69
2024/01/18 09:06:44;;;;;;;11.55;4.28;;;28.50;41.50;;;;;;4935718;29;20039;-68
2024/01/18 09:09:13;;;;;;;4.70;0.98;;;28.30;42.00;;;;;;4937605;29;20445;-68
2024/01/18 09:11:41;;;;;;;1.40;0.38;;;28.10;42.30;;;;;;4942309;28;20023;-69
2024/01/18 09:14:08;;;;;;;4.75;0.30;;;27.90;41.70;;;;;;4942711;28;20082;-69
2024/01/18 09:16:37;;;;;;;4.88;0.50;;;27.80;42.10;;;;;;4933737;29;20374;-71
2024/01/18 09:19:04;;;;;;;1.42;0.30;;;27.60;43.40;;;;;;4934302;29;20102;-69
2024/01/18 09:21:32;;;;;;;2.22;0.30;;;27.50;44.00;;;;;;4942758;29;20023;-69
2024/01/18 09:23:59;;;;;;;1.45;0.28;;;27.30;43.90;;;;;;4938452;29;20133;-69
2024/01/18 09:26:26;;;;;;;2.50;0.60;;;27.20;43.90;;;;;;4941385;29;20043;-69
2024/01/18 09:28:54;;;;;;;2.03;0.50;;;27.20;44.60;;;;;;4944003;29;20027;-69
2024/01/18 09:31:22;;;;;;;4.25;0.32;;;27.00;45.00;;;;;;4943735;28;20531;-69
2024/01/18 09:33:49;;;;;;;1.98;0.52;;;26.90;45.00;;;;;;4948077;29;20035;-69
2024/01/18 09:36:16;;;;;;;2.75;0.30;;;26.70;45.70;;;;;;4939262;28;20111;-70
2024/01/18 09:38:44;;;;;;;1.10;0.30;;;26.60;45.50;;;;;;4946580;29;20035;-69
2024/01/18 09:41:11;;;;;;;2.10;0.30;;;26.60;46.00;;;;;;4942319;29;20015;-69
2024/01/18 09:43:42;;;;;;;0.98;0.30;;;26.50;46.10;;;;;;4942135;29;20043;-69
2024/01/18 09:46:14;;;;;;;1.52;0.20;;;26.40;46.70;;;;;;4950344;28;20039;-70
2024/01/18 09:48:42;;;;;;;2.38;0.20;;;26.30;46.60;;;;;;4937679;29;20024;-70
2024/01/18 09:51:12;;;;;;;0.73;0.30;;;26.20;46.50;;;;;;4941914;29;20066;-68
2024/01/18 09:53:44;;;;;;;3.40;0.70;;;26.10;46.50;;;;;;4938464;28;20111;-67
2024/01/18 09:56:24;;;;;;;1.98;0.45;;;26.00;46.60;;;;;;4942804;29;22028;-68
2024/01/18 09:58:52;;;;;;;4.15;0.50;;;26.00;46.80;;;;;;4944066;29;20587;-68
2024/01/18 10:01:26;;;;;;;2.60;0.52;;;26.00;47.40;;;;;;4936760;29;20028;-69
2024/01/18 10:03:54;;;;;;;3.75;0.60;;;26.00;46.50;;;;;;4938682;29;20043;-69
2024/01/18 10:06:21;;;;;;;3.45;0.40;;;25.90;45.80;;;;;;4943930;29;20023;-70
2024/01/18 10:08:52;;;;;;;1.88;0.45;;;25.80;45.80;;;;;;4951068;28;20527;-69
2024/01/18 10:11:20;;;;;;;3.15;0.60;;;26.00;45.00;;;;;;4938425;29;20027;-69
2024/01/18 10:13:51;;;;;;;2.00;0.30;;;26.00;45.40;;;;;;4937137;29;20032;-69
2024/01/18 10:16:40;;;;;;;2.13;0.43;;;25.80;45.20;;;;;;4938746;29;20031;-71
2024/01/18 10:19:15;;;;;;;4.10;0.65;;;25.70;46.10;;;;;;4939798;29;20062;-70
2024/01/18 10:21:44;;;;;;;2.42;0.38;;;25.60;46.10;;;;;;4948265;28;20110;-69
2024/01/18 10:24:13;;;;;;;1.50;0.40;;;25.40;46.20;;;;;;4958741;28;20043;-69
2024/01/18 10:26:41;;;;;;;1.52;0.22;;;25.40;48.50;;;;;;4938801;29;20040;-69
2024/01/18 10:29:09;;;;;;;2.00;0.40;;;25.30;47.30;;;;;;4942233;28;20027;-68
2024/01/18 10:31:41;;;;;;;1.17;0.30;;;25.20;48.00;;;;;;4936019;29;20401;-69
2024/01/18 10:34:08;;;;;;;2.95;0.30;;;25.10;48.60;;;;;;4936485;29;20492;-71
2024/01/18 10:36:37;;;;;;;2.05;0.32;;;25.10;47.50;;;;;;4939424;29;20481;-69
2024/01/18 10:39:18;;;;;;;0.90;0.30;;;25.20;47.90;;;;;;4942039;29;20034;-68
2024/01/18 10:41:46;;;;;;;1.83;0.40;;;25.00;48.20;;;;;;4943267;29;20036;-69
2024/01/18 10:44:17;;;;;;;1.02;0.20;;;24.90;49.60;;;;;;4939109;29;20031;-69
2024/01/18 10:46:46;;;;;;;3.10;0.40;;;24.80;48.80;;;;;;4943184;29;20035;-69
2024/01/18 10:49:14;;;;;;;2.65;0.40;;;24.70;50.10;;;;;;4938572;29;20032;-69
2024/01/18 10:51:42;;;;;;;1.10;0.35;;;24.70;49.60;;;;;;4935828;29;20040;-69
2024/01/18 10:54:10;;;;;;;0.93;0.32;;;24.60;49.20;;;;;;4936147;29;20048;-69
2024/01/18 10:56:38;;;;;;;8.45;0.63;;;24.70;50.40;;;;;;4937660;29;20130;-69
2024/01/18 10:59:06;;;;;;;2.20;0.52;;;24.60;49.00;;;;;;4947855;28;20027;-68
2024/01/18 11:01:35;;;;;;;1.42;0.55;;;24.70;47.70;;;;;;4944116;28;20074;-68
2024/01/18 11:04:03;;;;;;;2.80;0.60;;;24.70;48.10;;;;;;4934816;29;20409;-69
2024/01/18 11:06:32;;;;;;;2.55;0.82;;;24.70;49.00;;;;;;4949866;28;20114;-68
2024/01/18 11:09:00;;;;;;;3.75;0.45;;;24.80;48.30;;;;;;4935348;29;20434;-68
2024/01/18 11:11:28;;;;;;;1.33;0.28;;;24.80;48.20;;;;;;4937625;29;20027;-69
2024/01/18 11:13:55;;;;;;;0.40;0.20;;;24.70;48.60;;;;;;4938948;28;20032;-68
2024/01/18 11:16:22;;;;;;;4.25;0.47;;;24.50;49.60;;;;;;4940046;29;20108;-68
2024/01/18 11:18:57;;;;;;;6.43;1.10;;;24.40;50.30;;;;;;4939935;29;20090;-68
2024/01/18 11:21:44;;;;;;;12.38;1.15;;;24.30;51.30;;;;;;4948010;29;20086;-68
2024/01/18 11:24:12;;;;;;;1.25;0.30;;;24.40;50.20;;;;;;4935242;29;20039;-68
2024/01/18 11:26:39;;;;;;;3.05;0.38;;;24.20;50.60;;;;;;4934691;29;20043;-67
2024/01/18 11:29:25;;;;;;;3.60;0.52;;;24.10;50.90;;;;;;4941106;29;20034;-68
2024/01/18 11:31:53;;;;;;;3.25;0.65;;;24.10;51.00;;;;;;4940816;29;20109;-68
2024/01/18 11:34:30;;;;;;;2.70;0.50;;;24.00;51.90;;;;;;4934673;29;20071;-68
2024/01/18 11:37:15;;;;;;;1.67;0.50;;;23.90;51.50;;;;;;4937257;29;20111;-68
2024/01/18 11:39:48;;;;;;;4.18;0.80;;;23.90;52.80;;;;;;4938234;29;20032;-68
2024/01/18 11:42:23;;;;;;;2.42;0.63;;;23.90;52.40;;;;;;4935852;29;20031;-68
2024/01/18 11:45:01;;;;;;;4.85;0.60;;;23.80;53.00;;;;;;4935050;29;20027;-66
2024/01/18 11:47:31;;;;;;;2.65;0.45;;;23.80;53.90;;;;;;4947440;28;20374;-68
2024/01/18 11:50:05;;;;;;;2.30;0.63;;;23.60;54.80;;;;;;4934668;29;20020;-68
2024/01/18 11:52:34;;;;;;;3.35;0.30;;;23.50;55.50;;;;;;4938947;29;20047;-68
2024/01/18 11:55:03;;;;;;;2.30;0.50;;;23.40;56.60;;;;;;4940660;28;20027;-68
2024/01/18 11:57:32;;;;;;;2.25;0.43;;;23.30;57.50;;;;;;4934824;29;20465;-68
2024/01/18 12:00:00;;;;;;;1.00;0.40;;;23.30;58.10;;;;;;4934525;29;20079;-69
2024/01/18 12:02:28;;;;;;;3.95;0.40;;;23.20;58.20;;;;;;4937079;29;20055;-68
2024/01/18 12:04:57;;;;;;;3.40;0.98;;;23.20;57.90;;;;;;4943588;29;20433;-68
2024/01/18 12:07:26;;;;;;;4.13;0.50;;;23.00;58.10;;;;;;4935453;29;20023;-67
2024/01/18 12:09:53;;;;;;;1.45;0.22;;;22.80;57.20;;;;;;4948623;29;20057;-68
2024/01/18 12:12:21;;;;;;;3.00;0.40;;;22.70;57.10;;;;;;4939687;29;20102;-68
2024/01/18 12:14:50;;;;;;;3.17;0.60;;;22.60;56.50;;;;;;4938890;29;20090;-68
2024/01/18 12:17:17;;;;;;;1.80;0.52;;;22.80;55.90;;;;;;4940280;29;20024;-68
2024/01/18 12:19:48;;;;;;;2.13;0.50;;;22.90;55.80;;;;;;4937542;29;20110;-68
2024/01/18 12:22:18;;;;;;;1.33;0.70;;;22.90;56.70;;;;;;4947836;28;20463;-67
2024/01/18 12:24:48;;;;;;;2.85;0.60;;;22.80;56.60;;;;;;4934428;29;20091;-67
2024/01/18 12:27:16;;;;;;;1.30;0.57;;;22.60;57.40;;;;;;4945503;28;20485;-69
2024/01/18 12:29:44;;;;;;;3.80;1.08;;;22.50;57.50;;;;;;4946950;28;20473;-68
2024/01/18 12:32:16;;;;;;;4.32;1.05;;;22.50;60.00;;;;;;4938278;29;20071;-68
2024/01/18 12:34:44;;;;;;;3.65;0.90;;;22.80;59.60;;;;;;4934724;29;20036;-68
2024/01/18 12:37:12;;;;;;;3.80;0.82;;;22.60;61.40;;;;;;4941326;29;20063;-67
2024/01/18 12:39:40;;;;;;;10.50;1.05;;;22.50;61.50;;;;;;4937607;28;20023;-67
2024/01/18 12:42:08;;;;;;;4.88;0.70;;;22.40;61.60;;;;;;4934539;29;20114;-67
2024/01/18 12:44:35;;;;;;;5.00;0.85;;;22.20;62.30;;;;;;4937222;29;20051;-67
2024/01/18 12:47:02;;;;;;;5.00;0.65;;;22.20;62.10;;;;;;4944462;29;20032;-67
2024/01/18 12:49:30;;;;;;;4.80;0.63;;;22.20;61.80;;;;;;4940381;29;20031;-66
2024/01/18 12:51:59;;;;;;;4.97;0.60;;;22.20;61.70;;;;;;4944228;28;20508;-69